Airfield :
LOGIN :

Register | Disclaimer

   EN    FR    IT 

 










Legend :    VFR   Marginal VFR   IFR   Intensive IFR   Very Intensive IFR
Visi :
Ceiling :
>= 8 km
>= 3000ft
5 to 8 km
1000 to 3000 ft
1500m to 5 km
500 to 1000 ft
800 to 1500m
200 to 500 ft
< 800m
< 200 ft
Symbols :   Thunderstorms  Fog  Heavy snow  Heavy precipitations  Wind > 20 kt
SIGMETs :     Misc.  Thunderstorms  Icing  Turbulence  Mountain Waves  Volcanic Ashes







- Airport Elevation : 245 ft
- IATA code : BIQ
- Download approach charts


LFBZ - Biarritz

CURRENT METAR :
  • 160730Z AUTO 00000KT 9999 SCT012 SCT160 BKN220 12/12 Q1016 TEMPO 4000 BR BKN003

EXPIRED METARs :
  • 160700Z AUTO 16002KT 9999 BKN008 BKN100 BKN220 12/11 Q1016 TEMPO 4000 BR VV///
  • 160630Z AUTO 16003KT 9999 BKN007 BKN096 11/11 Q1015 TEMPO 4000 BR VV///
  • 160600Z AUTO 16003KT 9999 OVC006 11/11 Q1015 TEMPO 0800 FG VV///
  • 160530Z AUTO VRB01KT 9999 OVC005 12/11 Q1015 TEMPO 0800 FG VV///
  • 160500Z AUTO VRB02KT 9999 OVC004 12/11 Q1015 TEMPO 0800 FG VV///

TAF AMD TAF LFBZ
Valid from the 16 at 06:00 until the 17 at 06:00 UTC


160522Z 1606/1706 09005KT 9999 BKN015
TEMPO 1606/1609 4000 BR BKN003
PROB30
TEMPO 1606/1608 0800 FG VV///
BECMG 1611/1613 CAVOK
TEMPO 1613/1623 SCT015
TEMPO 1623/1706 2000 BR BKN003 BKN010
PROB30
TEMPO 1700/1706 0500 FG VV///
No reported NOTAMs for that airfield.



MET'MAP, your aeronautical weather chart ! - Copyright ORBIFLY December 2007 - Disclaimer

ORBIFLY MET'MAP TEAM :

Programming & Development : Alexandra Zaïnal
Concept & Development : Baudouin d'Aumeries
Co-Development & Prog : Marc-Olivier Méhu
Technical & hardware support : Manuel Goepfert

Contact : metmap@orbifly.com




SOURCES & CREDITS :

   NOAA